Airfield :
LOGIN :

Register | Disclaimer

   EN    FR    IT 

 










Legend :    VFR   Marginal VFR   IFR   Intensive IFR   Very Intensive IFR
Visi :
Ceiling :
>= 8 km
>= 3000ft
5 to 8 km
1000 to 3000 ft
1500m to 5 km
500 to 1000 ft
800 to 1500m
200 to 500 ft
< 800m
< 200 ft
Symbols :   Thunderstorms  Fog  Heavy snow  Heavy precipitations  Wind > 20 kt
SIGMETs :     Misc.  Thunderstorms  Icing  Turbulence  Mountain Waves  Volcanic Ashes







- Airport Elevation : 458 ft
- Download approach charts


LFSI - St-Dizier

CURRENT METAR :
  • 252000Z AUTO 25003KT CAVOK 13/11 Q1017

EXPIRED METARs :
  • 251930Z AUTO 26004KT CAVOK 13/11 Q1016
  • 251900Z AUTO 26005KT CAVOK 14/12 Q1016
  • 251830Z AUTO 26005KT 9999 FEW011/// SCT023/// OVC058/// ///CB 14/13 Q1016
  • 251800Z AUTO 26007KT 230V290 9999 SCT015/// BKN023/// BKN032/// ///TCU 14/13 Q1015
  • 251730Z AUTO 24006KT 9999 BKN043/// BKN049/// OVC056/// ///TCU 14/13 Q1015

TAF TAF LFSI
Valid from the 25 at 15:00 until the 26 at 15:00 UTC


251400Z 2515/2615 24010KT 9999 BKN040
TEMPO 2515/2518 4000 SHRA BKN025TCU
No reported NOTAMs for that airfield.



MET'MAP, your aeronautical weather chart ! - Copyright ORBIFLY December 2007 - Disclaimer

ORBIFLY MET'MAP TEAM :

Programming & Development : Alexandra Zaïnal
Concept & Development : Baudouin d'Aumeries
Co-Development & Prog : Marc-Olivier Méhu
Technical & hardware support : Manuel Goepfert

Contact : metmap@orbifly.com




SOURCES & CREDITS :

   NOAA